Time;durP1;ratioP1;P1;durP2;ratioP2;P2;SDS_P1;SDS_P2;PMS_P1;PMS_P2;Temp;Humidity;BMP_temperature;BMP_pressure;BME280_temperature;BME280_humidity;BME280_pressure;Samples;Min_cycle;Max_cycle;Signal;HPM_P1;HPM_P2
2022/05/16 00:01:44;;;;;;;16.42;7.50;;;;;;;17.19;96.03;100749.34;4969847;28;20126;-75
2022/05/16 00:04:10;;;;;;;13.07;8.05;;;;;;;17.22;95.99;100753.75;4970055;28;20047;-77
2022/05/16 00:06:36;;;;;;;14.50;7.90;;;;;;;17.03;96.59;100744.78;4969864;28;20034;-74
2022/05/16 00:09:03;;;;;;;9.73;6.88;;;;;;;17.10;96.32;100757.94;4969810;28;20030;-73
2022/05/16 00:11:30;;;;;;;9.45;7.20;;;;;;;17.10;96.24;100757.06;4969751;28;20042;-75
2022/05/16 00:13:56;;;;;;;10.52;7.45;;;;;;;17.14;96.04;100753.63;4969714;28;20425;-77
2022/05/16 00:16:22;;;;;;;10.57;7.05;;;;;;;17.09;95.92;100739.66;4970091;28;20031;-75
2022/05/16 00:18:47;;;;;;;13.45;7.22;;;;;;;17.19;95.38;100746.75;4972023;28;20035;-73
2022/05/16 00:21:13;;;;;;;9.95;7.38;;;;;;;17.28;95.13;100752.13;4972265;28;20023;-74
2022/05/16 00:23:38;;;;;;;10.55;7.05;;;;;;;17.19;95.52;100745.88;4972241;28;20073;-75
2022/05/16 00:26:04;;;;;;;10.40;7.53;;;;;;;17.12;95.02;100739.69;4971113;28;20030;-72
2022/05/16 00:28:29;;;;;;;15.18;8.15;;;;;;;17.10;94.95;100736.19;4971834;28;20038;-74
2022/05/16 00:30:55;;;;;;;13.57;7.93;;;;;;;17.06;95.33;100745.72;4982130;28;20030;-75
2022/05/16 00:33:20;;;;;;;12.15;7.90;;;;;;;17.13;95.75;100751.88;4980803;28;20022;-73
2022/05/16 00:35:46;;;;;;;11.20;8.27;;;;;;;17.24;95.04;100749.44;4988186;28;20027;-72
2022/05/16 00:38:11;;;;;;;12.23;7.30;;;;;;;17.20;94.68;100758.06;4990822;28;20109;-75
2022/05/16 00:40:37;;;;;;;9.43;7.80;;;;;;;16.94;95.93;100755.94;4982006;28;20436;-71
2022/05/16 00:43:09;;;;;;;19.77;7.90;;;;;;;16.90;96.60;100751.53;4989369;28;20488;-75
2022/05/16 00:45:35;;;;;;;11.02;7.95;;;;;;;16.81;96.30;100741.81;4990939;28;20600;-75
2022/05/16 00:48:02;;;;;;;14.02;8.10;;;;;;;16.78;96.79;100744.38;4991071;28;20117;-73
2022/05/16 00:50:28;;;;;;;10.43;8.45;;;;;;;16.81;97.07;100754.84;4984568;28;20034;-74
2022/05/16 00:52:55;;;;;;;13.43;8.10;;;;;;;16.76;97.35;100761.69;4977488;28;20585;-74
2022/05/16 00:55:25;;;;;;;9.82;8.50;;;;;;;16.86;97.15;100763.63;4981869;28;20053;-72
2022/05/16 00:57:57;;;;;;;10.60;7.80;;;;;;;16.84;96.47;100738.38;4981316;28;20046;-72
2022/05/16 01:00:36;;;;;;;14.55;7.82;;;;;;;16.93;95.85;100756.78;4932850;28;20039;-72
2022/05/16 01:05:58;;;;;;;13.77;7.72;;;;;;;16.70;95.75;100730.31;4982081;28;20038;-72
2022/05/16 01:08:26;;;;;;;14.15;8.98;;;;;;;16.78;96.83;100765.22;4981427;28;20030;-73
2022/05/16 01:10:55;;;;;;;10.40;8.85;;;;;;;16.76;97.01;100759.09;4981313;28;20026;-74
2022/05/16 01:13:25;;;;;;;11.70;8.30;;;;;;;16.62;96.68;100725.88;4981960;28;20050;-75
2022/05/16 01:15:52;;;;;;;11.13;8.38;;;;;;;16.86;96.46;100755.81;4963873;28;20314;-73
2022/05/16 01:18:20;;;;;;;10.48;8.25;;;;;;;16.95;96.12;100766.41;4980003;28;20030;-74
2022/05/16 01:21:11;;;;;;;13.53;8.73;;;;;;;17.00;95.49;100756.03;4981349;28;20092;-74
2022/05/16 01:23:43;;;;;;;13.23;8.68;;;;;;;16.88;95.67;100737.56;4982036;28;20624;-75
2022/05/16 01:26:16;;;;;;;11.90;8.63;;;;;;;16.79;95.25;100720.06;4980321;28;20030;-75
2022/05/16 01:28:42;;;;;;;14.45;8.57;;;;;;;16.81;96.12;100760.06;4964276;28;20109;-72
2022/05/16 01:31:07;;;;;;;10.45;8.63;;;;;;;16.48;97.50;100756.91;4980872;28;20179;-74
2022/05/16 01:33:34;;;;;;;12.90;9.43;;;;;;;16.49;98.13;100757.81;4980349;28;20030;-75
2022/05/16 01:35:59;;;;;;;11.02;9.13;;;;;;;16.07;99.26;100754.44;4964089;28;20035;-75
2022/05/16 01:38:27;;;;;;;12.93;9.07;;;;;;;15.94;100.00;100755.94;4980170;28;20019;-74
2022/05/16 01:40:56;;;;;;;11.13;8.95;;;;;;;16.00;100.00;100755.19;4963017;28;20030;-72
2022/05/16 01:43:26;;;;;;;10.43;9.40;;;;;;;16.05;100.00;100745.72;4982070;28;20022;-75
2022/05/16 01:45:51;;;;;;;11.85;9.05;;;;;;;16.08;100.00;100752.72;4989974;28;20120;-72
2022/05/16 01:48:19;;;;;;;14.43;9.27;;;;;;;15.97;100.00;100745.56;4990479;28;20473;-73
2022/05/16 01:50:47;;;;;;;13.82;9.48;;;;;;;15.95;100.00;100744.66;4977877;28;20031;-76
2022/05/16 01:53:13;;;;;;;11.45;9.60;;;;;;;16.04;100.00;100753.50;4976555;28;20062;-74
2022/05/16 01:55:39;;;;;;;11.30;9.50;;;;;;;15.71;100.00;100751.97;4987255;28;20030;-72
2022/05/16 01:58:05;;;;;;;11.75;9.30;;;;;;;15.51;100.00;100762.81;4979905;28;20081;-74
2022/05/16 02:00:32;;;;;;;11.85;8.55;;;;;;;15.27;100.00;100769.25;4993612;28;20066;-72
2022/05/16 02:02:59;;;;;;;15.45;8.60;;;;;;;15.35;100.00;100765.09;4993746;28;20034;-73
2022/05/16 02:05:25;;;;;;;12.18;8.18;;;;;;;14.99;100.00;100688.03;4959517;28;20042;-73
2022/05/16 02:07:51;;;;;;;12.75;7.80;;;;;;;15.61;100.00;100759.56;4993647;28;20035;-73
2022/05/16 02:10:18;;;;;;;14.02;7.95;;;;;;;15.75;100.00;100762.47;4993075;28;20034;-73
2022/05/16 02:12:45;;;;;;;9.05;7.95;;;;;;;15.53;99.82;100716.91;4984430;28;20497;-73
2022/05/16 02:15:14;;;;;;;11.60;8.15;;;;;;;15.76;99.57;100768.53;4993324;28;20054;-71
2022/05/16 02:17:40;;;;;;;11.68;7.80;;;;;;;15.41;100.00;100758.28;4993435;28;20560;-72
2022/05/16 02:20:06;;;;;;;8.85;7.63;;;;;;;15.37;99.88;100723.50;4993511;28;20129;-73
2022/05/16 02:25:16;;;;;;;9.80;8.05;;;;;;;15.25;100.00;100763.13;4993326;28;20041;-71
2022/05/16 02:27:43;;;;;;;12.90;8.73;;;;;;;15.17;100.00;100762.94;4993172;28;20034;-73
2022/05/16 02:30:10;;;;;;;10.48;8.00;;;;;;;15.15;100.00;100771.56;4993216;28;20030;-74
2022/05/16 02:32:36;;;;;;;11.65;8.55;;;;;;;15.00;100.00;100778.19;4993179;28;20057;-75
2022/05/16 02:35:02;;;;;;;12.98;8.90;;;;;;;14.88;100.00;100781.34;4993341;28;20481;-71
2022/05/16 02:37:28;;;;;;;12.82;8.70;;;;;;;14.92;100.00;100771.03;4993148;28;20058;-73
2022/05/16 02:39:53;;;;;;;13.15;7.72;;;;;;;15.05;100.00;100791.25;4993204;28;20030;-76
2022/05/16 02:42:19;;;;;;;10.88;7.85;;;;;;;15.08;100.00;100790.47;4992940;28;20467;-74
2022/05/16 02:44:45;;;;;;;10.75;8.20;;;;;;;15.13;100.00;100784.53;4992990;28;20026;-73
2022/05/16 02:47:17;;;;;;;11.85;8.85;;;;;;;15.19;100.00;100782.09;4992879;28;20026;-72
2022/05/16 02:49:43;;;;;;;9.32;8.20;;;;;;;15.13;100.00;100768.94;4993002;28;20566;-73
2022/05/16 02:52:09;;;;;;;12.77;8.18;;;;;;;15.16;100.00;100781.13;4992832;28;20491;-75
2022/05/16 02:54:35;;;;;;;11.80;8.70;;;;;;;15.23;100.00;100777.84;4992679;28;20045;-72
2022/05/16 02:57:01;;;;;;;13.10;8.30;;;;;;;15.44;99.98;100773.94;4989978;28;20030;-75
2022/05/16 02:59:32;;;;;;;10.15;8.05;;;;;;;15.49;99.23;100768.00;4940696;28;20039;-74
2022/05/16 03:01:59;;;;;;;13.60;8.85;;;;;;;15.56;98.24;100773.34;4932148;29;20044;-75
2022/05/16 03:04:24;;;;;;;14.52;9.75;;;;;;;15.23;100.00;100798.63;4946499;28;20116;-72
2022/05/16 03:06:50;;;;;;;12.38;8.75;;;;;;;15.14;100.00;100799.31;4950618;28;20105;-74
2022/05/16 03:09:16;;;;;;;13.95;10.23;;;;;;;15.07;100.00;100801.72;4951324;28;20035;-70
2022/05/16 03:11:41;;;;;;;12.63;9.75;;;;;;;14.95;100.00;100791.91;4951109;28;20031;-75
2022/05/16 03:14:07;;;;;;;13.35;9.77;;;;;;;15.07;100.00;100793.94;4934997;28;20509;-70
2022/05/16 03:16:33;;;;;;;12.98;9.43;;;;;;;15.26;100.00;100798.69;4951162;28;20525;-73
2022/05/16 03:18:58;;;;;;;12.55;9.63;;;;;;;15.18;99.90;100769.03;4951181;28;20042;-70
2022/05/16 03:21:24;;;;;;;13.32;10.65;;;;;;;15.42;99.93;100805.13;4951118;28;20476;-73
2022/05/16 03:23:50;;;;;;;14.00;10.00;;;;;;;15.29;100.00;100806.59;4935212;28;20109;-74
2022/05/16 03:26:15;;;;;;;12.65;9.27;;;;;;;15.14;100.00;100812.31;4951023;28;20509;-73
2022/05/16 03:28:41;;;;;;;16.33;10.10;;;;;;;14.80;100.00;100810.59;4950889;28;20581;-70
2022/05/16 03:31:09;;;;;;;21.35;9.95;;;;;;;15.01;100.00;100810.25;4968041;28;20053;-72
2022/05/16 03:33:34;;;;;;;14.18;9.57;;;;;;;14.94;100.00;100817.03;4972761;28;20030;-74
2022/05/16 03:36:00;;;;;;;11.73;8.82;;;;;;;15.12;100.00;100819.19;4972406;28;20043;-73
2022/05/16 03:41:12;;;;;;;14.65;9.68;;;;;;;14.94;100.00;100814.44;4972814;28;20559;-73
2022/05/16 03:43:39;;;;;;;18.30;10.07;;;;;;;14.74;100.00;100813.91;4972382;28;20034;-73
2022/05/16 03:46:06;;;;;;;13.25;9.32;;;;;;;14.30;100.00;100821.41;4972415;28;20034;-73
2022/05/16 03:48:32;;;;;;;14.40;10.38;;;;;;;13.96;100.00;100802.28;4972254;28;20031;-72
2022/05/16 03:50:59;;;;;;;13.68;10.93;;;;;;;14.20;100.00;100822.84;4972474;28;20601;-72
2022/05/16 03:53:24;;;;;;;13.98;11.10;;;;;;;14.15;100.00;100819.25;4971987;28;20029;-70
2022/05/16 03:55:50;;;;;;;13.48;11.40;;;;;;;14.25;100.00;100829.06;4971963;28;20027;-71
2022/05/16 03:58:15;;;;;;;12.82;10.27;;;;;;;14.36;100.00;100832.81;4972254;28;20022;-71
2022/05/16 04:00:41;;;;;;;15.15;10.93;;;;;;;14.35;100.00;100833.66;4972017;28;20029;-76
2022/05/16 04:03:07;;;;;;;13.80;10.18;;;;;;;14.63;100.00;100837.00;4972226;28;20034;-72
2022/05/16 04:05:33;;;;;;;12.90;10.45;;;;;;;14.75;100.00;100838.19;4972008;28;20166;-71
2022/05/16 04:07:58;;;;;;;23.48;11.48;;;;;;;14.83;100.00;100844.47;4971712;28;20027;-74
2022/05/16 04:10:24;;;;;;;14.80;10.73;;;;;;;14.95;100.00;100843.91;4971839;28;20034;-74
2022/05/16 04:12:50;;;;;;;18.85;10.80;;;;;;;15.12;100.00;100849.53;4971926;28;20405;-70
2022/05/16 04:15:16;;;;;;;13.95;10.32;;;;;;;15.15;100.00;100852.19;4963174;28;20055;-70
2022/05/16 04:17:42;;;;;;;13.68;10.43;;;;;;;15.21;100.00;100847.13;4971244;28;20118;-73
2022/05/16 04:20:09;;;;;;;13.65;9.90;;;;;;;15.31;100.00;100848.22;4971294;28;20035;-72
2022/05/16 04:22:35;;;;;;;14.70;9.98;;;;;;;15.49;100.00;100856.47;4971049;28;20039;-73
2022/05/16 04:25:01;;;;;;;14.27;10.90;;;;;;;15.55;100.00;100854.84;4970649;28;20027;-74
2022/05/16 04:27:27;;;;;;;18.30;10.93;;;;;;;15.61;100.00;100842.84;4970914;28;20599;-71
2022/05/16 04:29:52;;;;;;;13.07;11.75;;;;;;;15.57;100.00;100820.19;4971490;28;20030;-71
2022/05/16 04:32:17;;;;;;;12.25;10.80;;;;;;;15.79;100.00;100851.94;4971029;28;20026;-73
2022/05/16 04:34:43;;;;;;;15.80;10.98;;;;;;;15.86;100.00;100846.00;4971369;28;20038;-71
2022/05/16 04:37:08;;;;;;;13.35;11.02;;;;;;;15.85;100.00;100841.69;4970546;28;20113;-73
2022/05/16 04:39:34;;;;;;;13.25;10.98;;;;;;;16.04;100.00;100842.03;4983970;28;20120;-73
2022/05/16 04:44:43;;;;;;;18.00;11.20;;;;;;;16.29;100.00;100849.50;4990290;28;20089;-72
2022/05/16 04:47:10;;;;;;;16.42;11.52;;;;;;;16.33;100.00;100840.88;4990570;28;20030;-74
2022/05/16 04:49:36;;;;;;;14.27;11.40;;;;;;;16.49;100.00;100841.19;4990060;28;20101;-73
2022/05/16 04:52:02;;;;;;;15.00;10.80;;;;;;;16.43;100.00;100841.94;4989745;28;20117;-72
2022/05/16 04:54:27;;;;;;;14.68;10.77;;;;;;;16.55;100.00;100846.53;4977923;28;20113;-74
2022/05/16 04:56:54;;;;;;;16.13;10.98;;;;;;;16.56;100.00;100858.72;4987810;28;20026;-70
2022/05/16 04:59:20;;;;;;;13.32;11.35;;;;;;;16.42;100.00;100819.34;4987526;28;20533;-73
2022/05/16 05:01:47;;;;;;;13.63;11.77;;;;;;;16.68;100.00;100847.59;4990901;28;20018;-70
2022/05/16 05:04:13;;;;;;;13.85;10.85;;;;;;;16.72;100.00;100852.03;4990752;28;20030;-69
2022/05/16 05:06:39;;;;;;;13.15;10.55;;;;;;;16.88;100.00;100860.13;4990459;28;20100;-72
2022/05/16 05:09:06;;;;;;;15.07;10.82;;;;;;;17.04;100.00;100861.31;4984426;28;20030;-74
2022/05/16 05:14:34;;;;;;;13.63;10.73;;;;;;;17.14;100.00;100847.56;4975500;28;20061;-70
2022/05/16 05:17:08;;;;;;;12.57;10.23;;;;;;;17.38;99.01;100880.97;4961170;28;20532;-71
2022/05/16 05:19:36;;;;;;;12.07;10.05;;;;;;;17.42;97.28;100858.41;4990474;28;20390;-70
2022/05/16 05:22:03;;;;;;;12.43;9.82;;;;;;;17.60;95.61;100871.72;4990456;28;20037;-74
2022/05/16 05:24:29;;;;;;;13.45;10.30;;;;;;;17.76;95.64;100882.41;4989575;28;20045;-73
2022/05/16 05:26:54;;;;;;;12.05;9.65;;;;;;;17.78;96.32;100878.97;4989895;28;20031;-73
2022/05/16 05:29:20;;;;;;;11.98;9.38;;;;;;;17.78;95.88;100878.97;4988280;28;20033;-73
2022/05/16 05:31:46;;;;;;;11.10;9.52;;;;;;;17.92;95.94;100880.91;4993096;28;20416;-73
2022/05/16 05:34:12;;;;;;;13.07;10.02;;;;;;;18.04;95.23;100880.19;4993364;28;20038;-73
2022/05/16 05:36:40;;;;;;;12.52;9.48;;;;;;;18.09;95.33;100878.50;4993701;28;20034;-74
2022/05/16 05:39:06;;;;;;;13.45;10.85;;;;;;;18.16;95.37;100884.72;4951159;28;20055;-70
2022/05/16 05:41:31;;;;;;;12.93;10.15;;;;;;;18.17;95.74;100863.81;4991760;28;20424;-73
2022/05/16 05:43:57;;;;;;;13.43;10.35;;;;;;;18.31;94.34;100873.56;4993556;28;20057;-74
2022/05/16 05:46:23;;;;;;;14.18;10.98;;;;;;;18.38;95.56;100884.09;4993088;28;20034;-73
2022/05/16 05:48:49;;;;;;;12.98;11.02;;;;;;;18.47;96.26;100887.66;4986576;28;20026;-73
2022/05/16 05:51:15;;;;;;;17.00;11.23;;;;;;;18.54;94.48;100885.16;4984895;28;20066;-73
2022/05/16 05:53:42;;;;;;;14.73;10.75;;;;;;;18.56;93.86;100882.56;4985470;28;20030;-72
2022/05/16 05:56:08;;;;;;;11.57;9.70;;;;;;;18.55;94.77;100876.44;4992710;28;20529;-72
2022/05/16 05:58:34;;;;;;;15.20;11.00;;;;;;;18.75;95.13;100897.59;4986210;28;20030;-73
2022/05/16 06:01:01;;;;;;;13.90;10.55;;;;;;;18.72;95.31;100887.06;4988979;28;20034;-73
2022/05/16 06:03:27;;;;;;;14.57;10.55;;;;;;;18.74;95.42;100874.00;4974838;28;20041;-72
2022/05/16 06:05:53;;;;;;;13.23;10.80;;;;;;;18.82;96.18;100884.56;4987931;28;20026;-71
2022/05/16 06:08:19;;;;;;;13.30;10.13;;;;;;;18.71;96.65;100840.84;4977856;28;20058;-74
2022/05/16 06:10:45;;;;;;;14.48;10.48;;;;;;;18.97;96.29;100887.34;4988596;28;20034;-75
2022/05/16 06:13:11;;;;;;;12.68;10.45;;;;;;;18.90;95.04;100852.41;4992966;28;20026;-76
2022/05/16 06:15:36;;;;;;;13.25;9.73;;;;;;;19.08;95.78;100877.84;4992404;28;20060;-72
2022/05/16 06:18:02;;;;;;;12.23;10.23;;;;;;;19.13;95.39;100887.47;4993032;28;20033;-74
2022/05/16 06:20:28;;;;;;;14.68;10.48;;;;;;;19.21;94.91;100891.91;4993268;28;20054;-73
2022/05/16 06:22:54;;;;;;;11.43;10.13;;;;;;;19.19;94.96;100872.72;4992886;28;20496;-72
2022/05/16 06:25:39;;;;;;;13.82;10.07;;;;;;;19.32;96.78;100875.41;4992855;28;20030;-74
2022/05/16 06:28:14;;;;;;;12.13;10.50;;;;;;;19.44;94.20;100888.59;4992194;28;20022;-71
2022/05/16 06:30:43;;;;;;;13.63;10.90;;;;;;;19.36;95.29;100900.75;4992294;28;20026;-74
2022/05/16 06:33:09;;;;;;;11.70;10.30;;;;;;;19.32;97.25;100889.38;4992158;28;20061;-73
2022/05/16 06:35:36;;;;;;;10.68;9.48;;;;;;;19.45;96.63;100884.22;4992358;28;20385;-72
2022/05/16 06:38:10;;;;;;;11.40;10.20;;;;;;;19.36;96.87;100878.03;4992289;28;20042;-74
2022/05/16 06:40:38;;;;;;;14.80;10.68;;;;;;;19.64;95.81;100875.63;4991728;28;20404;-74
2022/05/16 06:43:04;;;;;;;13.45;9.27;;;;;;;19.78;95.35;100875.72;4975081;28;20440;-70
2022/05/16 06:45:30;;;;;;;11.75;9.68;;;;;;;19.92;94.17;100880.19;4988923;28;20023;-73
2022/05/16 06:47:55;;;;;;;15.43;10.35;;;;;;;19.90;93.40;100881.91;4980125;28;20473;-75
2022/05/16 06:50:21;;;;;;;11.80;10.00;;;;;;;19.99;94.02;100874.97;4992200;28;20023;-73
2022/05/16 06:52:47;;;;;;;12.63;10.15;;;;;;;19.86;94.02;100836.47;4991855;28;20033;-74
2022/05/16 06:55:14;;;;;;;11.68;10.25;;;;;;;20.28;92.83;100873.34;4989117;28;20030;-71
2022/05/16 06:57:40;;;;;;;11.70;10.13;;;;;;;20.22;92.54;100847.97;4982375;28;20031;-74
2022/05/16 07:00:07;;;;;;;17.55;10.50;;;;;;;20.50;93.70;100877.78;4987832;28;20030;-73
2022/05/16 07:02:33;;;;;;;11.18;10.00;;;;;;;20.54;92.78;100857.69;4992212;28;20114;-71
2022/05/16 07:05:00;;;;;;;15.13;10.70;;;;;;;20.74;93.01;100886.59;4992098;28;20039;-74
2022/05/16 07:07:26;;;;;;;12.85;10.45;;;;;;;20.83;90.68;100881.34;4991526;28;20464;-71
2022/05/16 07:09:52;;;;;;;12.15;9.73;;;;;;;20.88;91.88;100873.50;4983804;28;20045;-70
2022/05/16 07:12:18;;;;;;;12.18;9.90;;;;;;;20.91;92.21;100870.88;4974749;28;20058;-76
2022/05/16 07:14:45;;;;;;;11.88;10.10;;;;;;;21.03;91.74;100875.25;4991178;28;20058;-73
2022/05/16 07:20:32;;;;;;;13.10;9.95;;;;;;;20.79;93.50;100849.88;5153005;22;20084;-72
2022/05/16 07:22:58;;;;;;;11.85;10.55;;;;;;;20.77;94.33;100842.00;5012560;28;20500;-73
2022/05/16 07:25:26;;;;;;;11.95;10.70;;;;;;;20.94;93.21;100854.25;4997299;28;20094;-72
2022/05/16 07:28:02;;;;;;;13.10;10.05;;;;;;;21.07;92.61;100861.25;4980210;28;20038;-71
2022/05/16 07:30:33;;;;;;;11.00;9.90;;;;;;;21.14;91.93;100838.50;4972766;28;20109;-73
2022/05/16 07:32:59;;;;;;;11.73;10.27;;;;;;;21.35;91.81;100855.97;4973159;28;20038;-73
2022/05/16 07:35:30;;;;;;;13.10;10.02;;;;;;;21.52;93.08;100858.59;4972855;28;20035;-73
2022/05/16 07:37:56;;;;;;;13.38;9.70;;;;;;;21.62;92.32;100854.19;4973115;28;20058;-74
2022/05/16 07:43:21;;;;;;;10.02;8.55;;;;;;;21.78;90.46;100855.91;5099267;22;20066;-73
2022/05/16 07:45:47;;;;;;;10.50;9.48;;;;;;;21.92;84.94;100850.59;5009028;28;20080;-73
2022/05/16 07:48:13;;;;;;;11.23;9.95;;;;;;;21.81;84.70;100852.41;5002576;28;20042;-72
2022/05/16 07:50:39;;;;;;;11.90;9.52;;;;;;;21.81;83.50;100871.66;4992067;28;20072;-72
2022/05/16 07:53:11;;;;;;;13.13;9.80;;;;;;;21.86;84.34;100862.88;4991569;28;20109;-69
2022/05/16 07:55:38;;;;;;;11.30;9.43;;;;;;;22.04;82.50;100868.06;4991481;28;20029;-73
2022/05/16 07:58:03;;;;;;;11.25;9.77;;;;;;;22.05;81.10;100868.97;4992404;28;20066;-72
2022/05/16 08:00:29;;;;;;;10.57;9.55;;;;;;;22.09;82.25;100875.94;4991958;28;20065;-73
2022/05/16 08:02:55;;;;;;;11.80;9.95;;;;;;;21.84;83.38;100864.66;4991908;28;20034;-70
2022/05/16 08:05:22;;;;;;;11.13;10.00;;;;;;;21.59;84.99;100838.44;4991850;28;20239;-69
2022/05/16 08:10:33;;;;;;;12.52;10.23;;;;;;;21.94;82.71;100863.75;4991891;28;20065;-69
2022/05/16 08:13:01;;;;;;;12.02;10.10;;;;;;;21.93;82.15;100857.63;4991466;28;20492;-70
2022/05/16 08:15:28;;;;;;;10.95;9.90;;;;;;;22.21;80.29;100867.16;4991653;28;20042;-73
2022/05/16 08:17:54;;;;;;;10.93;9.77;;;;;;;22.18;80.04;100833.84;5011484;28;20030;-70
2022/05/16 08:20:20;;;;;;;14.10;9.80;;;;;;;22.47;79.36;100856.50;5011409;28;20036;-69
2022/05/16 08:22:46;;;;;;;11.63;9.82;;;;;;;22.67;77.90;100863.38;5011301;28;20087;-69
2022/05/16 08:25:11;;;;;;;11.38;10.23;;;;;;;22.34;77.79;100846.91;4975849;28;20045;-69
2022/05/16 08:27:37;;;;;;;11.15;9.95;;;;;;;22.50;79.89;100864.38;5011234;28;20037;-69
2022/05/16 08:30:04;;;;;;;12.05;9.85;;;;;;;22.53;78.67;100856.47;5011455;28;20103;-69
2022/05/16 08:32:29;;;;;;;12.82;10.35;;;;;;;22.81;77.99;100872.06;5010984;28;20088;-72
2022/05/16 08:35:03;;;;;;;11.85;10.15;;;;;;;22.77;75.64;100855.41;5010811;28;20025;-70
2022/05/16 08:40:13;;;;;;;11.55;10.30;;;;;;;23.13;74.42;100864.78;4991466;28;20081;-69
2022/05/16 08:43:06;;;;;;;12.63;11.43;;;;;;;23.22;76.02;100859.47;4991255;28;20405;-69
2022/05/16 08:45:50;;;;;;;14.52;11.10;;;;;;;23.32;75.91;100865.53;4991123;28;20104;-72
2022/05/16 08:48:33;;;;;;;11.55;10.45;;;;;;;23.16;75.67;100841.09;4958637;28;20497;-71
2022/05/16 08:51:24;;;;;;;11.23;10.10;;;;;;;23.41;73.82;100861.06;4995535;28;20030;-72
2022/05/16 08:54:11;;;;;;;11.27;9.80;;;;;;;23.50;73.67;100859.19;4993431;28;20092;-72
2022/05/16 08:56:41;;;;;;;12.07;10.40;;;;;;;23.69;72.46;100858.13;4991178;28;20029;-69
2022/05/16 08:59:13;;;;;;;12.05;10.82;;;;;;;23.90;70.29;100846.44;4991525;28;20085;-73
2022/05/16 09:01:51;;;;;;;14.32;10.93;;;;;;;24.05;70.86;100836.63;4982019;28;20049;-73
2022/05/16 09:04:31;;;;;;;12.18;10.38;;;;;;;24.13;68.77;100820.72;5013453;28;20029;-69
2022/05/16 09:07:16;;;;;;;13.93;10.05;;;;;;;24.26;67.62;100806.44;5014806;28;20045;-72
2022/05/16 09:10:00;;;;;;;12.48;10.05;;;;;;;24.46;67.56;100831.66;5014422;28;20780;-71
2022/05/16 09:12:34;;;;;;;13.00;10.80;;;;;;;24.44;66.71;100836.09;4996801;28;20067;-72
2022/05/16 09:15:26;;;;;;;11.63;10.05;;;;;;;24.28;68.11;100824.91;5014563;28;20109;-72
2022/05/16 09:18:19;;;;;;;10.75;9.65;;;;;;;24.35;67.21;100823.88;5014358;28;20034;-72
2022/05/16 09:20:51;;;;;;;11.65;10.45;;;;;;;24.54;68.05;100821.88;5014238;28;20627;-72
2022/05/16 09:23:34;;;;;;;12.27;10.30;;;;;;;24.80;67.04;100828.50;5014350;28;20044;-73
2022/05/16 09:26:13;;;;;;;11.13;10.02;;;;;;;24.95;65.58;100824.75;5014203;28;20026;-73
2022/05/16 09:28:47;;;;;;;10.07;8.93;;;;;;;25.03;63.12;100792.03;5014083;28;20520;-72
2022/05/16 09:31:19;;;;;;;10.98;9.48;;;;;;;25.24;61.95;100786.38;5014027;28;20026;-72
2022/05/16 09:33:51;;;;;;;10.07;9.13;;;;;;;25.46;61.83;100800.06;5014291;28;20105;-74
2022/05/16 09:36:21;;;;;;;10.45;9.32;;;;;;;25.50;63.13;100809.69;4979452;28;20049;-69
2022/05/16 09:38:47;;;;;;;13.48;10.00;;;;;;;25.62;62.64;100790.06;5014213;28;20515;-73
2022/05/16 09:41:36;;;;;;;9.48;8.52;;;;;;;25.71;59.54;100797.81;4996355;28;20038;-73
2022/05/16 09:44:10;;;;;;;10.55;8.40;;;;;;;25.66;61.69;100791.75;5013809;28;20412;-69
2022/05/16 09:46:35;;;;;;;12.13;9.13;;;;;;;25.35;63.52;100768.53;5014051;28;20099;-72
2022/05/16 09:49:03;;;;;;;11.43;9.23;;;;;;;25.72;65.55;100791.63;5013601;28;20108;-72
2022/05/16 09:51:30;;;;;;;10.73;8.88;;;;;;;25.76;63.87;100787.16;5013575;28;20030;-69
2022/05/16 09:54:10;;;;;;;9.23;8.32;;;;;;;25.62;63.51;100772.44;5013499;28;20527;-72
2022/05/16 09:56:36;;;;;;;9.30;8.40;;;;;;;25.82;63.16;100779.06;5013770;28;20030;-71
2022/05/16 09:59:03;;;;;;;9.88;8.88;;;;;;;25.77;64.51;100768.59;5013761;28;20026;-73
2022/05/16 10:01:37;;;;;;;10.48;8.65;;;;;;;26.06;61.08;100767.13;5013605;28;20034;-73
2022/05/16 10:04:20;;;;;;;9.35;8.38;;;;;;;26.15;62.20;100758.09;5013401;28;20492;-74
2022/05/16 10:07:02;;;;;;;9.57;8.57;;;;;;;26.16;62.15;100722.78;5013457;28;20030;-71
2022/05/16 10:09:32;;;;;;;9.30;8.27;;;;;;;26.36;61.64;100750.56;5013610;28;20036;-72
2022/05/16 10:11:57;;;;;;;9.57;8.27;;;;;;;26.54;62.14;100744.78;5013539;28;20025;-74
2022/05/16 10:14:23;;;;;;;9.48;8.00;;;;;;;26.41;61.78;100743.38;5012754;28;20059;-73
2022/05/16 10:16:51;;;;;;;8.55;7.63;;;;;;;26.64;58.76;100741.00;5012983;28;20044;-72
2022/05/16 10:19:22;;;;;;;9.48;8.00;;;;;;;26.88;56.83;100709.53;5013156;28;20068;-69
2022/05/16 10:21:55;;;;;;;8.98;8.07;;;;;;;27.16;53.33;100726.44;5013287;28;20037;-72
2022/05/16 10:24:25;;;;;;;9.18;7.53;;;;;;;27.15;53.70;100735.31;5013202;28;20048;-73
2022/05/16 10:26:53;;;;;;;8.50;7.60;;;;;;;27.16;54.69;100700.78;5013177;28;20404;-73
2022/05/16 10:29:29;;;;;;;9.15;7.95;;;;;;;27.29;55.48;100720.75;5012876;28;20488;-69
2022/05/16 10:35:04;;;;;;;;;;;;;;;27.18;56.13;100722.84;5013644;28;20037;-72
2022/05/16 10:37:32;;;;;;;9.20;7.95;;;;;;;27.19;56.15;100679.53;4952277;29;20480;-74
2022/05/16 10:40:11;;;;;;;11.10;9.15;;;;;;;27.29;58.43;100704.84;4952157;29;20501;-70
2022/05/16 10:42:54;;;;;;;10.88;9.00;;;;;;;27.10;56.76;100714.22;4951934;29;20059;-72
2022/05/16 10:45:25;;;;;;;9.43;8.43;;;;;;;27.15;55.57;100709.66;4951939;29;20559;-69
2022/05/16 10:47:56;;;;;;;9.10;8.20;;;;;;;27.41;55.71;100702.78;4952359;29;20039;-72
2022/05/16 10:50:24;;;;;;;10.15;8.60;;;;;;;27.42;55.02;100694.75;4952224;29;20035;-70
2022/05/16 10:53:09;;;;;;;10.07;8.70;;;;;;;27.69;57.19;100708.13;4951862;29;20066;-72
2022/05/16 10:55:45;;;;;;;9.65;8.75;;;;;;;27.75;53.16;100686.72;4951837;29;20039;-71
2022/05/16 10:58:24;;;;;;;9.65;8.68;;;;;;;27.88;52.33;100699.59;4951598;29;20198;-72
2022/05/16 11:01:07;;;;;;;10.32;9.25;;;;;;;28.01;51.21;100694.75;4947021;29;20134;-72
2022/05/16 11:03:39;;;;;;;13.15;9.85;;;;;;;28.20;53.46;100687.97;4947569;29;20118;-74
2022/05/16 11:06:31;;;;;;;12.65;10.10;;;;;;;28.18;51.86;100681.81;4900945;29;20232;-72
2022/05/16 11:09:23;;;;;;;12.00;9.45;;;;;;;28.19;54.08;100672.94;4950404;29;20082;-75
2022/05/16 11:11:54;;;;;;;10.65;9.07;;;;;;;28.54;51.80;100676.19;4946585;29;20483;-73
2022/05/16 11:14:46;;;;;;;9.75;8.35;;;;;;;28.19;51.49;100643.75;4971299;28;20073;-72
2022/05/16 11:17:41;;;;;;;10.68;8.48;;;;;;;28.13;51.30;100665.19;5003072;28;20038;-73
2022/05/16 11:20:27;;;;;;;11.63;9.10;;;;;;;28.05;51.57;100656.59;5003053;28;20026;-72
2022/05/16 11:23:02;;;;;;;9.75;8.73;;;;;;;28.15;51.23;100657.16;5002999;28;20030;-70
2022/05/16 11:25:34;;;;;;;10.95;9.77;;;;;;;28.25;51.50;100624.06;5002875;28;20056;-74
2022/05/16 11:28:09;;;;;;;11.80;8.43;;;;;;;28.49;47.51;100634.78;4993722;28;20401;-74
2022/05/16 11:30:50;;;;;;;11.55;8.75;;;;;;;28.24;49.81;100640.94;4975207;28;20030;-72
2022/05/16 11:33:25;;;;;;;7.70;6.90;;;;;;;28.19;48.10;100633.13;4992430;28;20038;-73
2022/05/16 11:35:55;;;;;;;8.50;7.60;;;;;;;28.34;49.22;100623.78;4992174;28;20038;-71
2022/05/16 11:38:37;;;;;;;8.25;7.45;;;;;;;28.35;49.06;100624.63;4992210;28;20038;-73
2022/05/16 11:41:36;;;;;;;7.97;7.18;;;;;;;28.16;51.00;100611.13;4992213;28;20116;-72
2022/05/16 11:44:23;;;;;;;10.98;7.80;;;;;;;28.33;50.44;100614.06;4992146;28;20061;-70
2022/05/16 11:47:07;;;;;;;8.32;7.25;;;;;;;28.52;49.99;100579.75;4997021;28;20564;-74
2022/05/16 11:49:42;;;;;;;9.55;8.05;;;;;;;28.35;50.04;100595.41;5011439;28;20018;-75
2022/05/16 11:52:27;;;;;;;9.38;8.02;;;;;;;28.70;48.25;100591.53;5004444;28;20029;-74
2022/05/16 12:01:00;;;;;;;8.77;7.88;;;;;;;29.38;47.14;100593.44;5010109;28;20037;-76